Atlantic Island — C4VM2 — position and weather

sailwx.info

Track history (hours):
 
Tides and Currents Weather Stations Pressure Air Temp Water Temp Dewpoint Dewpoint Depression Visibility Wind Speed Wind Dir Waves Ship Positions

Atlantic Island

Last reported at 2015-May-11 05:29 UTC. Time now 2015-May-22 22:10 UTC.
Position N 42°13' W 008°52'.
Warning: this ship's position is 11 days out of date.

Length 95 m; draft 3.7 m.

Type: Cargo ship. MMSI: 210754000.

Date/timePositionNaut miles runAvg speedWind from/ knotsBaromVisibWave heightAir tempDewpointWater temp
2015-May-11 05:29N 42°13' W 008°52'1 0.9
2015-May-11 04:33N 42°13' W 008°53'0 0.0
2015-May-11 02:27N 42°13' W 008°53'  
2015-May-08 04:18N 39°32' W 009°46'1210.0
2015-May-08 03:07N 39°20' W 009°47'6 9.9
2015-May-08 02:33N 39°15' W 009°47'10 9.8
2015-May-08 01:33N 39°05' W 009°48'10 9.8
2015-May-08 00:33N 38°55' W 009°50'10 9.9
2015-May-07 23:33N 38°46' W 009°51'9 9.4
2015-May-07 22:33N 38°36' W 009°49'10 9.5
2015-May-07 21:33N 38°27' W 009°45'1010.0
2015-May-07 20:33N 38°17' W 009°43'1010.3
2015-May-07 19:34N 38°07' W 009°40'1010.0
2015-May-07 18:33N 37°57' W 009°37'10 9.7
2015-May-07 17:33N 37°48' W 009°34'10 9.7
2015-May-07 16:32N 37°38' W 009°31'1010.1
2015-May-07 15:33N 37°29' W 009°29'10 9.7
2015-May-07 14:29N 37°19' W 009°26'910.1
2015-May-07 13:33N 37°09' W 009°24'22 9.8
2015-May-07 11:19N 36°49' W 009°14'9 9.4
2015-May-07 10:24N 36°43' W 009°05'8 9.1
2015-May-07 09:33N 36°39' W 008°58'1010.0
2015-May-07 08:33N 36°29' W 008°54'1010.1
2015-May-07 07:33N 36°20' W 008°49'1010.0
2015-May-07 06:33N 36°10' W 008°45'1010.1
2015-May-07 05:33N 36°01' W 008°40'1010.0
2015-May-07 04:31N 35°51' W 008°35'19 9.9
2015-May-07 02:33N 35°33' W 008°27'10 9.8
2015-May-07 01:32N 35°24' W 008°22'  
2015-May-03 04:09N 33°39' W 007°37'  
Track history (hours):
 
Tides and Currents Weather Stations Pressure Air Temp Water Temp Dewpoint Dewpoint Depression Visibility Wind Speed Wind Dir Waves Ship Positions

Atlantic Island

Last reported at 2015-May-11 05:29 UTC. Time now 2015-May-22 22:10 UTC.
Position N 42°13' W 008°52'.
Warning: this ship's position is 11 days out of date.

Length 95 m; draft 3.7 m.

Type: Cargo ship. MMSI: 210754000.

Date/timePositionNaut miles runAvg speedWind from/ knotsBaromVisibWave heightAir tempDewpointWater temp
2015-May-11 05:29N 42°13' W 008°52'1 0.9
2015-May-11 04:33N 42°13' W 008°53'0 0.0
2015-May-11 02:27N 42°13' W 008°53'  
2015-May-08 04:18N 39°32' W 009°46'1210.0
2015-May-08 03:07N 39°20' W 009°47'6 9.9
2015-May-08 02:33N 39°15' W 009°47'10 9.8
2015-May-08 01:33N 39°05' W 009°48'10 9.8
2015-May-08 00:33N 38°55' W 009°50'10 9.9
2015-May-07 23:33N 38°46' W 009°51'9 9.4
2015-May-07 22:33N 38°36' W 009°49'10 9.5
2015-May-07 21:33N 38°27' W 009°45'1010.0
2015-May-07 20:33N 38°17' W 009°43'1010.3
2015-May-07 19:34N 38°07' W 009°40'1010.0
2015-May-07 18:33N 37°57' W 009°37'10 9.7
2015-May-07 17:33N 37°48' W 009°34'10 9.7
2015-May-07 16:32N 37°38' W 009°31'1010.1
2015-May-07 15:33N 37°29' W 009°29'10 9.7
2015-May-07 14:29N 37°19' W 009°26'910.1
2015-May-07 13:33N 37°09' W 009°24'22 9.8
2015-May-07 11:19N 36°49' W 009°14'9 9.4
2015-May-07 10:24N 36°43' W 009°05'8 9.1
2015-May-07 09:33N 36°39' W 008°58'1010.0
2015-May-07 08:33N 36°29' W 008°54'1010.1
2015-May-07 07:33N 36°20' W 008°49'1010.0
2015-May-07 06:33N 36°10' W 008°45'1010.1
2015-May-07 05:33N 36°01' W 008°40'1010.0
2015-May-07 04:31N 35°51' W 008°35'19 9.9
2015-May-07 02:33N 35°33' W 008°27'10 9.8
2015-May-07 01:32N 35°24' W 008°22'  
2015-May-03 04:09N 33°39' W 007°37'  

Dump ship's entire track history